createdAt,value
2022-08-26T00:08:05.520Z,68.0
2022-08-26T00:17:40.846Z,68.0
2022-08-26T00:27:40.858Z,69.0
2022-08-26T00:37:40.858Z,69.5
2022-08-26T00:47:40.861Z,69.5
2022-08-26T00:57:40.864Z,70.0
2022-08-26T01:17:40.867Z,70.5
2022-08-26T01:28:05.539Z,70.5
2022-08-26T01:37:40.876Z,70.5
2022-08-26T01:48:05.551Z,70.5
2022-08-26T01:57:40.885Z,71.0
2022-08-26T02:17:40.892Z,71.5
2022-08-26T02:27:40.893Z,71.5
2022-08-26T02:37:41.852Z,72.0
2022-08-26T02:47:40.901Z,72.0
2022-08-26T02:57:40.900Z,72.5
2022-08-26T03:07:40.910Z,73.0
2022-08-26T03:17:40.908Z,73.0
2022-08-26T03:28:05.587Z,73.5
2022-08-26T03:38:30.256Z,73.5
2022-08-26T03:47:40.930Z,73.5
2022-08-26T03:57:40.925Z,73.5
2022-08-26T04:08:05.601Z,74.0
2022-08-26T04:18:05.601Z,74.0
2022-08-26T04:27:40.938Z,74.0
2022-08-26T04:37:43.109Z,74.5
2022-08-26T04:48:05.621Z,74.5
2022-08-26T04:58:05.616Z,74.5
2022-08-26T05:07:40.958Z,74.5
2022-08-26T05:17:40.958Z,74.5
2022-08-26T05:28:05.713Z,74.5
2022-08-26T05:37:40.965Z,75.0
2022-08-26T05:47:40.965Z,75.0
2022-08-26T05:58:05.636Z,75.0
2022-08-26T06:07:40.976Z,75.0
2022-08-26T06:28:05.660Z,75.0
2022-08-26T06:37:41.183Z,75.0
2022-08-26T06:47:40.993Z,74.5
2022-08-26T07:07:41.009Z,74.5
2022-08-26T07:18:05.672Z,74.5
2022-08-26T07:27:41.009Z,74.0
2022-08-26T07:38:05.683Z,74.0
2022-08-26T07:48:05.691Z,74.0
2022-08-26T07:58:05.691Z,74.0
2022-08-26T08:07:45.253Z,74.0
2022-08-26T08:17:41.033Z,73.5
2022-08-26T08:27:41.034Z,73.0
2022-08-26T08:37:41.039Z,73.0
2022-08-26T08:47:41.045Z,72.5
2022-08-26T08:57:41.053Z,72.5
2022-08-26T09:08:06.825Z,72.0
2022-08-26T09:17:41.058Z,72.0
2022-08-26T09:27:41.058Z,71.5
2022-08-26T09:37:41.150Z,71.5
2022-08-26T09:47:41.073Z,71.5
2022-08-26T09:57:41.075Z,71.5
2022-08-26T10:07:41.075Z,71.5
2022-08-26T10:17:41.073Z,71.5
2022-08-26T10:27:48.443Z,71.5
2022-08-26T10:37:41.076Z,72.0
2022-08-26T10:47:41.081Z,72.0
2022-08-26T10:57:41.088Z,72.0
2022-08-26T11:07:41.095Z,72.0
2022-08-26T11:27:41.104Z,71.5
2022-08-26T11:37:41.327Z,71.5
2022-08-26T11:47:42.011Z,72.0
2022-08-26T11:57:41.109Z,72.0
2022-08-26T12:07:42.547Z,71.5
2022-08-26T12:17:41.122Z,71.0
2022-08-26T12:27:41.551Z,71.0
2022-08-26T12:37:41.132Z,70.5
2022-08-26T12:47:43.388Z,70.5
2022-08-26T12:57:41.144Z,70.0
2022-08-26T13:07:41.145Z,69.5
2022-08-26T13:17:41.142Z,69.5
2022-08-26T13:27:41.150Z,69.5
2022-08-26T13:37:42.002Z,69.0
2022-08-26T13:47:41.154Z,69.5
2022-08-26T13:57:41.157Z,70.0
2022-08-26T14:07:41.163Z,70.0
2022-08-26T14:17:41.166Z,69.0
2022-08-26T14:27:41.168Z,68.5
2022-08-26T14:37:41.172Z,67.5
2022-08-26T14:47:41.185Z,67.0
2022-08-26T14:57:41.186Z,65.5
2022-08-26T15:07:41.196Z,65.5
2022-08-26T15:17:41.194Z,65.5
2022-08-26T15:27:41.195Z,66.0
2022-08-26T15:37:41.282Z,65.5
2022-08-26T15:47:55.326Z,65.5
2022-08-26T15:57:41.206Z,66.0
2022-08-26T16:07:41.210Z,66.0
2022-08-26T16:17:41.221Z,66.0
2022-08-26T16:27:41.217Z,65.5
2022-08-26T16:37:41.223Z,64.5
2022-08-26T16:47:41.227Z,64.5
2022-08-26T16:57:41.225Z,65.5
2022-08-26T17:07:41.229Z,65.0
2022-08-26T17:17:41.237Z,65.0
2022-08-26T17:27:41.237Z,65.0
2022-08-26T17:37:41.243Z,65.5
2022-08-26T17:47:41.241Z,65.5
2022-08-26T17:57:42.323Z,65.5
2022-08-26T18:07:43.641Z,65.5
2022-08-26T18:17:41.250Z,66.0
2022-08-26T18:27:41.250Z,66.0
2022-08-26T18:37:41.260Z,66.5
2022-08-26T18:47:41.261Z,66.5
2022-08-26T18:57:41.268Z,66.5
2022-08-26T19:07:41.283Z,66.5
2022-08-26T19:17:41.278Z,67.0
2022-08-26T19:27:41.282Z,67.5
2022-08-26T19:37:41.282Z,67.5
2022-08-26T19:47:41.287Z,67.5
2022-08-26T19:57:41.282Z,67.5
2022-08-26T20:07:41.289Z,68.0
2022-08-26T20:17:41.294Z,68.0
2022-08-26T20:27:41.294Z,68.0
2022-08-26T20:37:41.308Z,68.0
2022-08-26T20:47:41.301Z,68.0
2022-08-26T20:57:41.308Z,68.0
2022-08-26T21:07:41.305Z,68.0
2022-08-26T21:17:41.315Z,68.0
2022-08-26T21:27:41.313Z,67.5
2022-08-26T21:37:41.323Z,67.5
2022-08-26T21:47:41.323Z,67.5
2022-08-26T21:57:41.326Z,67.0
2022-08-26T22:07:41.327Z,67.0
2022-08-26T22:17:41.337Z,66.5
2022-08-26T22:27:42.881Z,65.5
2022-08-26T22:37:41.344Z,65.0
2022-08-26T22:47:41.339Z,64.5
2022-08-26T22:57:41.346Z,64.5
2022-08-26T23:07:41.350Z,64.0
2022-08-26T23:17:41.356Z,64.0
2022-08-26T23:27:41.353Z,64.0
2022-08-26T23:37:41.361Z,64.0
2022-08-26T23:47:41.361Z,64.0
2022-08-26T23:57:41.358Z,64.0
